Time;durP1;ratioP1;P1;durP2;ratioP2;P2;SDS_P1;SDS_P2;PMS_P1;PMS_P2;Temp;Humidity;BMP_temperature;BMP_pressure;BME280_temperature;BME280_humidity;BME280_pressure;Samples;Min_cycle;Max_cycle;Signal;HPM_P1;HPM_P2
2023/12/20 00:00:00;;;;;;;2.70;2.50;;;7.80;99.90;;;;;;10493260;28;20606;-81
2023/12/20 00:05:02;;;;;;;2.43;2.20;;;7.70;99.90;;;;;;10492936;28;20610;-81
2023/12/20 00:10:07;;;;;;;2.10;2.00;;;7.60;99.90;;;;;;10494538;28;20230;-81
2023/12/20 00:15:09;;;;;;;2.60;2.40;;;7.60;99.90;;;;;;10477740;28;20265;-81
2023/12/20 00:20:12;;;;;;;2.30;2.10;;;7.50;99.90;;;;;;10495907;28;20273;-82
2023/12/20 00:25:16;;;;;;;2.23;2.00;;;7.60;99.90;;;;;;10497954;28;20690;-82
2023/12/20 00:30:19;;;;;;;2.10;2.00;;;7.60;99.90;;;;;;10479793;28;20232;-82
2023/12/20 00:35:21;;;;;;;2.60;2.50;;;7.60;99.90;;;;;;10497055;28;20232;-81
2023/12/20 00:40:25;;;;;;;2.47;2.37;;;7.50;99.90;;;;;;10499850;28;20254;-81
2023/12/20 00:45:27;;;;;;;2.70;2.60;;;7.50;99.90;;;;;;10482162;28;20192;-82
2023/12/20 00:50:30;;;;;;;3.20;2.70;;;7.30;99.90;;;;;;10507022;28;20201;-82
2023/12/20 00:55:33;;;;;;;3.33;2.77;;;7.30;99.90;;;;;;10504219;28;20720;-81
2023/12/20 01:00:36;;;;;;;3.90;3.60;;;7.30;99.90;;;;;;10505764;28;20197;-81
2023/12/20 01:05:38;;;;;;;3.63;3.43;;;7.20;99.90;;;;;;10505499;28;20686;-81
2023/12/20 01:10:42;;;;;;;3.83;3.63;;;7.20;99.90;;;;;;10504053;28;20682;-82
2023/12/20 01:15:44;;;;;;;4.20;4.00;;;7.10;99.90;;;;;;10503984;28;20604;-81
2023/12/20 01:20:46;;;;;;;4.70;4.50;;;7.00;99.90;;;;;;10505319;28;20226;-81
2023/12/20 01:25:50;;;;;;;5.60;5.30;;;7.00;99.90;;;;;;10502986;28;20212;-81
2023/12/20 01:30:52;;;;;;;5.20;5.00;;;7.10;99.90;;;;;;10504155;28;20561;-81
2023/12/20 01:35:55;;;;;;;5.23;5.03;;;7.00;99.90;;;;;;10503145;28;20217;-81
2023/12/20 01:40:59;;;;;;;5.43;5.13;;;7.00;99.90;;;;;;10503638;28;20203;-81
2023/12/20 01:46:01;;;;;;;6.20;5.90;;;7.00;99.90;;;;;;10502984;28;20570;-81
2023/12/20 01:51:04;;;;;;;6.30;6.00;;;7.00;99.90;;;;;;10484907;28;20223;-81
2023/12/20 01:56:09;;;;;;;6.17;5.97;;;7.00;99.90;;;;;;10498709;28;20263;-81
2023/12/20 02:01:13;;;;;;;6.40;6.10;;;7.00;99.90;;;;;;10497690;28;20246;-81
2023/12/20 02:06:15;;;;;;;6.50;6.30;;;6.90;99.90;;;;;;10501474;28;20213;-81
2023/12/20 02:11:20;;;;;;;6.17;5.97;;;6.90;99.90;;;;;;10503886;28;20220;-81
2023/12/20 02:16:23;;;;;;;6.10;5.90;;;7.00;99.90;;;;;;10469602;28;20224;-81
2023/12/20 02:21:34;;;;;;;6.70;6.40;;;7.00;99.90;;;;;;10499940;28;20189;-81
2023/12/20 02:26:36;;;;;;;6.60;6.30;;;7.00;99.90;;;;;;10499204;28;20213;-81
2023/12/20 02:31:38;;;;;;;7.10;6.80;;;6.90;99.90;;;;;;10501067;28;20227;-81
2023/12/20 02:36:42;;;;;;;7.70;7.40;;;6.90;99.90;;;;;;10506191;28;20224;-80
2023/12/20 02:41:44;;;;;;;7.60;7.10;;;6.90;99.90;;;;;;10507025;28;20200;-81
2023/12/20 02:46:47;;;;;;;7.77;7.37;;;7.00;99.90;;;;;;10498559;28;20220;-81
2023/12/20 02:51:50;;;;;;;7.67;7.37;;;7.00;99.90;;;;;;10497691;28;20192;-81
2023/12/20 02:56:53;;;;;;;6.97;6.67;;;7.00;99.90;;;;;;10498722;28;20236;-81
2023/12/20 03:01:55;;;;;;;8.27;7.93;;;7.00;99.90;;;;;;10500434;28;20788;-81
2023/12/20 03:06:59;;;;;;;7.70;7.30;;;7.00;99.90;;;;;;10498672;28;20209;-81
2023/12/20 03:12:01;;;;;;;8.10;7.70;;;7.00;99.90;;;;;;10499354;28;20681;-81
2023/12/20 03:17:04;;;;;;;8.60;8.10;;;7.00;99.90;;;;;;10498472;28;20225;-80
2023/12/20 03:22:07;;;;;;;7.90;7.30;;;7.00;99.90;;;;;;10499108;28;20281;-80
2023/12/20 03:27:10;;;;;;;7.37;7.10;;;7.00;99.90;;;;;;10498608;28;20209;-80
2023/12/20 03:32:12;;;;;;;8.10;7.80;;;6.90;99.90;;;;;;10499455;28;20604;-81
2023/12/20 03:37:16;;;;;;;6.97;6.67;;;7.00;99.90;;;;;;10500538;28;20220;-82
2023/12/20 03:42:18;;;;;;;7.30;7.00;;;7.00;99.90;;;;;;10499322;28;20724;-80
2023/12/20 03:47:20;;;;;;;7.30;7.00;;;7.00;99.90;;;;;;10479579;28;20624;-82
2023/12/20 03:52:24;;;;;;;6.87;6.60;;;7.00;99.90;;;;;;10499690;28;20193;-81
2023/12/20 03:57:26;;;;;;;7.20;7.00;;;7.00;99.90;;;;;;10497668;28;20212;-81
2023/12/20 04:02:29;;;;;;;7.00;6.80;;;7.00;99.90;;;;;;10500399;28;20281;-80
2023/12/20 04:07:33;;;;;;;7.80;7.50;;;6.90;99.90;;;;;;10499265;28;20215;-80
2023/12/20 04:12:35;;;;;;;8.17;7.87;;;6.90;99.90;;;;;;10499500;28;20595;-81
2023/12/20 04:17:37;;;;;;;6.73;6.53;;;6.90;99.90;;;;;;10481542;28;20228;-81
2023/12/20 04:22:42;;;;;;;7.43;7.23;;;6.90;99.90;;;;;;10506688;28;20250;-81
2023/12/20 04:27:44;;;;;;;7.27;7.07;;;6.90;99.90;;;;;;10508316;28;20212;-80
2023/12/20 04:32:46;;;;;;;7.17;6.97;;;6.90;99.90;;;;;;10507556;28;20192;-81
2023/12/20 04:37:50;;;;;;;8.60;8.30;;;6.90;99.90;;;;;;10509540;28;20220;-81
2023/12/20 04:42:52;;;;;;;7.17;6.97;;;6.90;99.90;;;;;;10492011;28;20204;-81
2023/12/20 04:47:55;;;;;;;6.93;6.73;;;6.90;99.90;;;;;;10492373;28;20243;-80
2023/12/20 04:52:59;;;;;;;8.80;8.50;;;6.80;99.90;;;;;;10511926;28;20200;-81
2023/12/20 04:58:01;;;;;;;8.03;7.63;;;6.80;99.90;;;;;;10510798;28;20227;-81
2023/12/20 05:03:04;;;;;;;7.57;7.37;;;6.80;99.90;;;;;;10511323;28;20196;-81
2023/12/20 05:08:08;;;;;;;7.73;7.40;;;6.80;99.90;;;;;;10511502;28;20204;-80
2023/12/20 05:13:10;;;;;;;7.50;7.30;;;6.80;99.90;;;;;;10535560;28;20203;-80
2023/12/20 05:18:13;;;;;;;7.10;6.90;;;6.80;99.90;;;;;;10533469;28;20223;-80
2023/12/20 05:23:17;;;;;;;6.40;6.20;;;6.80;99.90;;;;;;10524468;28;20211;-81
2023/12/20 05:28:19;;;;;;;7.00;6.80;;;6.80;99.90;;;;;;10506150;28;20220;-81
2023/12/20 05:33:21;;;;;;;6.40;6.20;;;6.80;99.90;;;;;;10505108;28;20200;-81
2023/12/20 05:38:25;;;;;;;7.37;6.97;;;6.90;99.90;;;;;;10489010;28;20228;-81
2023/12/20 05:43:27;;;;;;;5.50;5.30;;;6.90;99.90;;;;;;10506509;28;20250;-81
2023/12/20 05:48:30;;;;;;;7.07;6.87;;;6.90;99.90;;;;;;10503209;28;20740;-79
2023/12/20 05:53:33;;;;;;;7.40;7.00;;;6.90;99.90;;;;;;10503430;28;20201;-81
2023/12/20 05:58:36;;;;;;;7.37;7.17;;;6.90;99.90;;;;;;10499787;28;20277;-80
2023/12/20 06:03:41;;;;;;;7.20;6.90;;;6.90;99.90;;;;;;10499468;28;20269;-80
2023/12/20 06:08:45;;;;;;;7.00;6.80;;;6.90;99.90;;;;;;10495394;28;20212;-80
2023/12/20 06:13:48;;;;;;;7.00;6.70;;;6.90;99.90;;;;;;10499378;28;20600;-80
2023/12/20 06:18:51;;;;;;;6.70;6.50;;;6.90;99.90;;;;;;10502689;28;20227;-80
2023/12/20 06:23:54;;;;;;;6.13;5.93;;;6.90;99.90;;;;;;10488127;28;20218;-80
2023/12/20 06:28:57;;;;;;;7.57;7.27;;;6.90;99.90;;;;;;10505001;28;20216;-81
2023/12/20 06:33:59;;;;;;;7.47;7.20;;;6.80;99.90;;;;;;10496297;28;20282;-80
2023/12/20 06:39:04;;;;;;;6.17;5.87;;;6.80;99.90;;;;;;10494258;28;20373;-80
2023/12/20 06:44:06;;;;;;;6.60;6.30;;;6.80;99.90;;;;;;10502175;28;20204;-79
2023/12/20 06:49:09;;;;;;;6.77;6.47;;;6.80;99.90;;;;;;10504690;28;20215;-79
2023/12/20 06:54:13;;;;;;;6.17;5.97;;;6.90;99.90;;;;;;10505427;28;20207;-79
2023/12/20 06:59:15;;;;;;;7.13;6.70;;;6.90;99.90;;;;;;10503669;28;20219;-80
2023/12/20 07:04:20;;;;;;;5.20;5.00;;;6.90;99.90;;;;;;10503736;28;20243;-79
2023/12/20 07:09:23;;;;;;;6.17;5.97;;;6.90;99.90;;;;;;10502344;28;20223;-79
2023/12/20 07:14:26;;;;;;;7.03;6.83;;;6.90;99.90;;;;;;10506616;28;20199;-80
2023/12/20 07:19:28;;;;;;;5.60;5.40;;;7.00;99.90;;;;;;10508010;28;20740;-80
2023/12/20 07:24:32;;;;;;;6.63;6.37;;;7.00;99.90;;;;;;10509898;28;20211;-80
2023/12/20 07:29:34;;;;;;;6.80;6.50;;;7.00;99.90;;;;;;10484112;28;20209;-80
2023/12/20 07:34:37;;;;;;;6.17;5.97;;;7.10;99.90;;;;;;10504549;28;20189;-80
2023/12/20 07:39:41;;;;;;;7.00;6.60;;;7.10;99.90;;;;;;10490282;28;20658;-80
2023/12/20 07:44:43;;;;;;;8.03;7.63;;;7.20;99.90;;;;;;10515870;28;20189;-79
2023/12/20 07:49:45;;;;;;;8.27;7.87;;;7.20;99.90;;;;;;10511846;28;20258;-79
2023/12/20 07:54:49;;;;;;;8.80;8.30;;;7.20;99.90;;;;;;10491492;28;20215;-79
2023/12/20 07:59:51;;;;;;;10.27;9.57;;;7.20;99.90;;;;;;10490575;28;20247;-79
2023/12/20 08:04:54;;;;;;;11.20;10.30;;;7.10;99.90;;;;;;10491575;28;20192;-79
2023/12/20 08:09:57;;;;;;;9.13;8.63;;;7.10;99.90;;;;;;10473591;28;20216;-79
2023/12/20 08:15:00;;;;;;;7.60;7.00;;;7.10;99.90;;;;;;10491546;28;20187;-79
2023/12/20 08:20:02;;;;;;;12.47;8.20;;;7.10;99.90;;;;;;10472087;28;20728;-80
2023/12/20 08:25:07;;;;;;;8.47;7.97;;;7.10;99.90;;;;;;10491639;28;20200;-79
2023/12/20 08:30:10;;;;;;;8.27;7.77;;;7.00;99.90;;;;;;10492216;28;20262;-80
2023/12/20 08:35:12;;;;;;;6.87;6.37;;;7.10;99.90;;;;;;10491394;28;20219;-79
2023/12/20 08:40:16;;;;;;;7.30;6.70;;;7.10;99.90;;;;;;10491837;28;20265;-79
2023/12/20 08:45:19;;;;;;;6.57;5.90;;;7.20;99.90;;;;;;10491203;28;20264;-80
2023/12/20 08:50:21;;;;;;;7.47;6.77;;;7.00;99.90;;;;;;10492097;28;20221;-79
2023/12/20 08:55:26;;;;;;;6.27;5.87;;;7.00;99.90;;;;;;10494773;28;20576;-80
2023/12/20 09:00:29;;;;;;;5.90;5.40;;;7.00;99.90;;;;;;10491261;28;20227;-80
2023/12/20 09:05:32;;;;;;;8.83;5.70;;;6.90;99.90;;;;;;10491469;28;20200;-79
2023/12/20 09:10:35;;;;;;;9.93;5.90;;;6.90;99.90;;;;;;10497870;28;20197;-80
2023/12/20 09:15:38;;;;;;;6.13;5.73;;;6.80;99.90;;;;;;10497277;28;20606;-79
2023/12/20 09:20:40;;;;;;;6.63;5.53;;;6.80;99.90;;;;;;10497532;28;20220;-79
2023/12/20 09:25:44;;;;;;;5.43;4.70;;;6.90;99.90;;;;;;10478611;28;20227;-79
2023/12/20 09:30:47;;;;;;;5.33;4.90;;;6.80;99.90;;;;;;10497439;28;20273;-80
2023/12/20 09:35:50;;;;;;;6.47;5.87;;;6.80;99.90;;;;;;10496252;28;20266;-81
2023/12/20 09:40:54;;;;;;;4.43;3.90;;;6.80;99.90;;;;;;10497745;28;20694;-81
2023/12/20 09:46:02;;;;;;;3.60;3.27;;;6.80;99.90;;;;;;10497585;28;20693;-81
2023/12/20 09:51:04;;;;;;;7.07;3.60;;;6.80;99.90;;;;;;10497122;28;20193;-81
2023/12/20 09:56:08;;;;;;;3.00;2.63;;;6.80;99.90;;;;;;10495645;28;20724;-80
2023/12/20 10:01:11;;;;;;;7.90;3.50;;;6.80;99.90;;;;;;10497108;28;20227;-80
2023/12/20 10:06:14;;;;;;;6.60;2.93;;;6.80;99.90;;;;;;10496123;28;20685;-80
2023/12/20 10:11:19;;;;;;;4.80;3.00;;;6.80;99.90;;;;;;10478040;28;20188;-80
2023/12/20 10:16:26;;;;;;;3.27;2.77;;;6.80;99.90;;;;;;10412094;28;20241;-80
2023/12/20 10:21:28;;;;;;;3.90;2.47;;;6.80;99.90;;;;;;10392889;28;20264;-80
2023/12/20 10:26:32;;;;;;;3.57;2.07;;;7.00;99.90;;;;;;10413108;28;20218;-80
2023/12/20 10:31:36;;;;;;;3.57;2.10;;;7.10;99.90;;;;;;10494853;28;20192;-80
2023/12/20 10:36:38;;;;;;;3.20;2.70;;;7.30;99.90;;;;;;10494598;28;20764;-80
2023/12/20 10:41:44;;;;;;;2.70;2.40;;;7.40;99.90;;;;;;10495369;28;20282;-80
2023/12/20 10:46:51;;;;;;;4.23;2.40;;;7.50;99.90;;;;;;10476089;28;20689;-80
2023/12/20 10:51:57;;;;;;;3.47;2.40;;;7.60;99.90;;;;;;10476373;28;20204;-80
2023/12/20 10:57:01;;;;;;;3.90;1.90;;;7.70;99.90;;;;;;10492735;28;20228;-80
2023/12/20 11:02:05;;;;;;;3.13;2.83;;;7.70;99.90;;;;;;10495168;28;20216;-80
2023/12/20 11:07:18;;;;;;;3.23;2.10;;;7.70;99.90;;;;;;10493955;28;20208;-80
2023/12/20 11:12:29;;;;;;;4.77;2.47;;;7.70;99.90;;;;;;10410727;28;20206;-80
2023/12/20 11:17:33;;;;;;;3.80;2.73;;;7.80;99.90;;;;;;10475402;28;20228;-80
2023/12/20 11:22:35;;;;;;;3.60;1.97;;;7.80;99.90;;;;;;10492409;28;20665;-80
2023/12/20 11:27:43;;;;;;;2.50;2.30;;;7.90;99.90;;;;;;10492710;28;20209;-80
2023/12/20 11:32:47;;;;;;;2.27;1.97;;;7.90;99.90;;;;;;10495501;28;20192;-80
2023/12/20 11:37:49;;;;;;;5.60;2.20;;;7.90;99.90;;;;;;10501621;28;20208;-80
2023/12/20 11:42:54;;;;;;;4.67;2.50;;;7.80;99.90;;;;;;10502369;28;20196;-80
2023/12/20 11:47:57;;;;;;;5.90;2.43;;;7.80;99.90;;;;;;10502231;28;20224;-80
2023/12/20 11:53:00;;;;;;;3.43;2.30;;;7.80;99.90;;;;;;10503474;28;20207;-80
2023/12/20 11:58:04;;;;;;;8.03;2.40;;;7.80;99.90;;;;;;10402239;28;20746;-80
2023/12/20 12:03:06;;;;;;;2.60;2.40;;;7.80;99.90;;;;;;10423089;28;20248;-80
2023/12/20 12:08:09;;;;;;;4.13;2.23;;;7.80;99.90;;;;;;10503872;28;20212;-80
2023/12/20 12:13:14;;;;;;;6.00;2.47;;;7.80;99.90;;;;;;10486589;28;20274;-80
2023/12/20 12:18:17;;;;;;;3.07;2.60;;;7.90;99.90;;;;;;10505491;28;20853;-80
2023/12/20 12:23:24;;;;;;;6.03;2.30;;;7.80;99.90;;;;;;10456712;28;20212;-80
2023/12/20 12:28:29;;;;;;;3.27;2.43;;;7.80;99.90;;;;;;10507243;28;20235;-80
2023/12/20 12:33:31;;;;;;;4.47;2.43;;;7.80;99.90;;;;;;10498480;28;20628;-80
2023/12/20 12:38:34;;;;;;;5.90;2.50;;;7.90;99.90;;;;;;10493107;28;20228;-80
2023/12/20 12:43:37;;;;;;;3.73;1.80;;;7.90;99.90;;;;;;10500308;28;20219;-80
2023/12/20 12:48:40;;;;;;;3.80;2.40;;;7.80;99.90;;;;;;10482675;28;20216;-80
2023/12/20 12:53:42;;;;;;;2.10;1.90;;;7.80;99.90;;;;;;10484813;28;20189;-79
2023/12/20 12:58:46;;;;;;;2.60;2.37;;;7.80;99.90;;;;;;10499977;28;20224;-80
2023/12/20 13:03:48;;;;;;;4.47;2.50;;;7.80;99.90;;;;;;10502788;28;20218;-80
2023/12/20 13:08:51;;;;;;;3.23;2.73;;;7.90;99.90;;;;;;10502555;28;20767;-80
2023/12/20 13:13:55;;;;;;;4.80;2.27;;;7.90;99.90;;;;;;10484989;28;20227;-80
2023/12/20 13:18:58;;;;;;;3.33;2.23;;;7.90;99.90;;;;;;10502053;28;20282;-80
2023/12/20 13:24:01;;;;;;;3.03;2.20;;;8.00;99.90;;;;;;10484423;28;20201;-80
2023/12/20 13:29:05;;;;;;;8.03;3.00;;;8.10;99.90;;;;;;10501726;28;20212;-80
2023/12/20 13:34:07;;;;;;;3.77;2.27;;;8.00;99.90;;;;;;10501062;28;20271;-80
2023/12/20 13:39:10;;;;;;;2.50;1.80;;;8.00;99.90;;;;;;10503116;28;20224;-80
2023/12/20 13:44:14;;;;;;;3.63;1.83;;;8.10;99.90;;;;;;10485759;28;20200;-80
2023/12/20 13:49:16;;;;;;;3.77;2.00;;;8.10;99.90;;;;;;10504167;28;20213;-80
2023/12/20 13:54:21;;;;;;;3.13;1.77;;;8.10;99.90;;;;;;10503254;28;20197;-80
2023/12/20 13:59:26;;;;;;;2.23;1.97;;;8.20;99.90;;;;;;10503241;28;20274;-79
2023/12/20 14:04:28;;;;;;;2.00;1.73;;;8.10;99.90;;;;;;10503455;28;20258;-80
2023/12/20 14:09:30;;;;;;;4.10;1.87;;;8.10;99.90;;;;;;10503422;28;20227;-80
2023/12/20 14:14:34;;;;;;;2.07;1.80;;;8.00;99.90;;;;;;10485306;28;20211;-80
2023/12/20 14:19:36;;;;;;;2.73;1.73;;;8.00;99.90;;;;;;10485840;28;20216;-80
2023/12/20 14:24:39;;;;;;;3.50;1.90;;;7.90;99.90;;;;;;10486595;28;20202;-80
2023/12/20 14:29:42;;;;;;;3.70;1.90;;;7.90;99.90;;;;;;10486123;28;20212;-80
2023/12/20 14:34:45;;;;;;;6.60;1.90;;;7.80;99.90;;;;;;10505431;28;20201;-80
2023/12/20 14:39:47;;;;;;;3.07;2.00;;;7.80;99.90;;;;;;10504167;28;20228;-80
2023/12/20 14:44:52;;;;;;;3.70;2.00;;;7.90;99.90;;;;;;10505886;28;20200;-80
2023/12/20 14:49:54;;;;;;;4.53;2.20;;;7.80;99.90;;;;;;10503566;28;20209;-80
2023/12/20 14:54:56;;;;;;;4.40;2.20;;;7.80;99.90;;;;;;10485067;28;20200;-80
2023/12/20 15:00:00;;;;;;;3.20;1.90;;;7.70;99.90;;;;;;10503226;28;20342;-80
2023/12/20 15:05:03;;;;;;;2.87;1.67;;;7.60;99.90;;;;;;10504070;28;20219;-80
2023/12/20 15:10:06;;;;;;;4.53;2.03;;;7.50;99.90;;;;;;10506385;28;20686;-80
2023/12/20 15:15:10;;;;;;;6.07;2.20;;;7.50;99.90;;;;;;10504524;28;20200;-80
2023/12/20 15:20:13;;;;;;;4.07;2.10;;;7.60;99.90;;;;;;10487306;28;20212;-80
2023/12/20 15:25:21;;;;;;;4.13;2.07;;;7.50;99.90;;;;;;10504045;28;20605;-80
2023/12/20 15:30:24;;;;;;;2.13;1.87;;;7.50;99.90;;;;;;10488532;28;20223;-80
2023/12/20 15:35:27;;;;;;;2.97;1.97;;;7.40;99.90;;;;;;10506327;28;20200;-80
2023/12/20 15:40:29;;;;;;;4.43;2.03;;;7.40;99.90;;;;;;10503420;28;20698;-80
2023/12/20 15:45:33;;;;;;;2.77;1.80;;;7.40;99.90;;;;;;10465085;28;20193;-80
2023/12/20 15:50:35;;;;;;;4.00;1.80;;;7.30;99.90;;;;;;10499892;28;20196;-80
2023/12/20 15:55:38;;;;;;;3.80;2.57;;;7.30;99.90;;;;;;10499099;28;20224;-80
2023/12/20 16:00:42;;;;;;;6.30;2.30;;;7.30;99.90;;;;;;10501111;28;20212;-79
2023/12/20 16:05:44;;;;;;;2.60;2.07;;;7.20;99.90;;;;;;10500492;28;20228;-80
2023/12/20 16:10:47;;;;;;;3.03;1.70;;;7.20;99.90;;;;;;10500793;28;20599;-80
2023/12/20 16:15:50;;;;;;;3.87;2.10;;;7.20;99.90;;;;;;10503027;28;20232;-80
2023/12/20 16:20:53;;;;;;;4.57;2.10;;;7.20;99.90;;;;;;10509505;28;20220;-80
2023/12/20 16:25:55;;;;;;;8.53;2.33;;;7.10;99.90;;;;;;10492168;28;20224;-80
2023/12/20 16:30:59;;;;;;;2.60;2.40;;;7.10;99.90;;;;;;10510328;28;20227;-80
2023/12/20 16:36:01;;;;;;;3.33;2.30;;;7.10;99.90;;;;;;10509546;28;20216;-80
2023/12/20 16:41:04;;;;;;;5.17;2.90;;;7.00;99.90;;;;;;10511018;28;20219;-80
2023/12/20 16:46:09;;;;;;;3.27;2.10;;;7.10;99.90;;;;;;10510333;28;20225;-80
2023/12/20 16:51:11;;;;;;;2.77;2.30;;;7.10;99.90;;;;;;10508871;28;20188;-80
2023/12/20 16:56:13;;;;;;;3.37;2.83;;;7.00;99.90;;;;;;10491810;28;20450;-80
2023/12/20 17:01:18;;;;;;;5.67;4.17;;;7.00;99.90;;;;;;10512107;28;20262;-80
2023/12/20 17:06:20;;;;;;;3.20;2.90;;;7.00;99.90;;;;;;10494242;28;20216;-80
2023/12/20 17:11:22;;;;;;;2.47;2.27;;;7.00;99.90;;;;;;10513413;28;20550;-80
2023/12/20 17:16:26;;;;;;;1.90;1.73;;;6.90;99.90;;;;;;10515387;28;20236;-80
2023/12/20 17:21:29;;;;;;;2.10;1.93;;;6.90;99.90;;;;;;10517621;28;20498;-80
2023/12/20 17:26:31;;;;;;;3.00;2.73;;;6.90;99.90;;;;;;10531558;28;20227;-80
2023/12/20 17:31:36;;;;;;;3.10;2.50;;;6.90;99.90;;;;;;10536963;28;20214;-80
2023/12/20 17:36:38;;;;;;;3.83;2.37;;;6.90;99.90;;;;;;10523682;28;20216;-79
2023/12/20 17:41:41;;;;;;;2.57;1.67;;;6.80;99.90;;;;;;10503394;28;20233;-79
2023/12/20 17:46:44;;;;;;;2.30;2.10;;;6.80;99.90;;;;;;10503608;28;20216;-80
2023/12/20 17:51:47;;;;;;;4.00;2.20;;;6.80;99.90;;;;;;10487909;28;20207;-80
2023/12/20 17:56:49;;;;;;;3.93;2.23;;;6.80;99.90;;;;;;10502513;28;20716;-80
2023/12/20 18:01:53;;;;;;;2.10;2.00;;;6.80;99.90;;;;;;10504179;28;20216;-79
2023/12/20 18:06:55;;;;;;;3.23;2.60;;;6.80;99.90;;;;;;10501068;28;20716;-79
2023/12/20 18:11:58;;;;;;;2.63;2.43;;;6.80;99.90;;;;;;10503208;28;20188;-80
2023/12/20 18:17:02;;;;;;;3.33;2.67;;;6.80;99.90;;;;;;10502637;28;20224;-80
2023/12/20 18:22:05;;;;;;;3.33;3.00;;;6.80;99.90;;;;;;10484969;28;20217;-79
2023/12/20 18:27:07;;;;;;;3.50;1.93;;;6.80;99.90;;;;;;10496606;28;20224;-80
2023/12/20 18:32:11;;;;;;;2.30;2.10;;;6.70;99.90;;;;;;10478276;28;20620;-79
2023/12/20 18:37:13;;;;;;;3.07;2.10;;;6.70;99.90;;;;;;10504301;28;20216;-79
2023/12/20 18:42:16;;;;;;;4.63;2.03;;;6.80;99.90;;;;;;10506666;28;20220;-79
2023/12/20 18:47:19;;;;;;;2.60;2.37;;;6.80;99.90;;;;;;10504315;28;20215;-79
2023/12/20 18:52:23;;;;;;;3.33;2.40;;;6.80;99.90;;;;;;10504147;28;20193;-79
2023/12/20 18:57:25;;;;;;;3.13;2.10;;;6.80;99.90;;;;;;10496391;28;20215;-79
2023/12/20 19:02:30;;;;;;;4.20;2.50;;;6.80;99.90;;;;;;10499667;28;20212;-80
2023/12/20 19:07:33;;;;;;;2.13;2.03;;;6.80;99.90;;;;;;10504758;28;20704;-79
2023/12/20 19:12:35;;;;;;;3.17;2.47;;;6.80;99.90;;;;;;10508945;28;20196;-80
2023/12/20 19:17:39;;;;;;;5.00;2.80;;;6.80;99.90;;;;;;10495098;28;20229;-80
2023/12/20 19:22:41;;;;;;;5.70;3.20;;;6.80;99.90;;;;;;10447199;28;20221;-79
2023/12/20 19:27:44;;;;;;;5.63;2.73;;;6.80;99.90;;;;;;10452017;28;20272;-80
2023/12/20 19:32:47;;;;;;;4.27;2.73;;;6.70;99.90;;;;;;10454948;28;20220;-80
2023/12/20 19:37:50;;;;;;;4.00;2.27;;;6.70;99.90;;;;;;10430210;28;20632;-79
2023/12/20 19:42:52;;;;;;;2.37;2.17;;;6.70;99.90;;;;;;10446675;28;20202;-79
2023/12/20 19:47:56;;;;;;;3.13;2.47;;;6.70;99.90;;;;;;10419845;28;20218;-79
2023/12/20 19:52:59;;;;;;;4.37;2.60;;;6.80;99.90;;;;;;10432285;28;20182;-79
2023/12/20 19:58:01;;;;;;;4.67;3.13;;;6.70;99.90;;;;;;10430343;28;20213;-80
2023/12/20 20:03:05;;;;;;;2.77;2.17;;;6.70;99.90;;;;;;10429858;28;20217;-79
2023/12/20 20:08:08;;;;;;;4.13;2.83;;;6.60;99.90;;;;;;10427852;28;20213;-80
2023/12/20 20:13:10;;;;;;;4.50;2.70;;;6.60;99.90;;;;;;10410157;28;20237;-80
2023/12/20 20:18:15;;;;;;;3.53;2.60;;;6.50;99.90;;;;;;10427898;28;20217;-80
2023/12/20 20:23:17;;;;;;;4.10;2.30;;;6.50;99.90;;;;;;10409955;28;20857;-79
2023/12/20 20:28:19;;;;;;;3.73;2.80;;;6.40;99.90;;;;;;10429262;28;20279;-79
2023/12/20 20:33:23;;;;;;;3.53;3.23;;;6.40;99.90;;;;;;10430822;28;20721;-79
2023/12/20 20:38:26;;;;;;;2.77;2.43;;;6.40;99.90;;;;;;10430102;28;20221;-80
2023/12/20 20:43:28;;;;;;;4.30;2.40;;;6.40;99.90;;;;;;10429598;28;20213;-79
2023/12/20 20:48:32;;;;;;;2.67;2.47;;;6.40;99.90;;;;;;10425049;28;20218;-79
2023/12/20 20:53:34;;;;;;;2.97;2.57;;;6.50;99.90;;;;;;10405708;28;20190;-80
2023/12/20 20:58:36;;;;;;;5.80;2.23;;;6.60;99.90;;;;;;10422792;28;20699;-80
2023/12/20 21:03:40;;;;;;;2.57;2.37;;;6.60;99.90;;;;;;10408905;28;20226;-80
2023/12/20 21:08:42;;;;;;;3.63;2.40;;;6.60;99.90;;;;;;10428154;28;20218;-80
2023/12/20 21:13:47;;;;;;;2.33;2.13;;;6.70;99.90;;;;;;10427730;28;20201;-79
2023/12/20 21:18:51;;;;;;;3.50;2.70;;;6.70;99.90;;;;;;10426414;28;20325;-79
2023/12/20 21:23:54;;;;;;;3.00;2.40;;;6.70;99.90;;;;;;10426095;28;20221;-79
2023/12/20 21:28:56;;;;;;;3.40;2.30;;;6.70;99.90;;;;;;10426679;28;20788;-79
2023/12/20 21:34:00;;;;;;;2.13;1.93;;;6.70;99.90;;;;;;10424733;28;20205;-80
2023/12/20 21:39:02;;;;;;;4.80;2.57;;;6.80;99.90;;;;;;10405882;28;20720;-80
2023/12/20 21:44:07;;;;;;;2.50;2.27;;;6.80;99.90;;;;;;10423620;28;20230;-80
2023/12/20 21:49:10;;;;;;;2.50;2.30;;;6.80;99.90;;;;;;10404127;28;20241;-80
2023/12/20 21:54:14;;;;;;;3.43;2.80;;;6.80;99.90;;;;;;10422022;28;20197;-79
2023/12/20 21:59:16;;;;;;;2.00;1.90;;;6.80;99.90;;;;;;10443252;28;20229;-80
2023/12/20 22:04:20;;;;;;;2.07;1.77;;;6.70;99.90;;;;;;10502774;28;20715;-80
2023/12/20 22:09:22;;;;;;;3.83;2.43;;;6.70;99.90;;;;;;10500467;28;20221;-80
2023/12/20 22:14:25;;;;;;;2.07;1.87;;;6.70;99.90;;;;;;10480887;28;20200;-80
2023/12/20 22:19:29;;;;;;;3.73;2.47;;;6.80;99.90;;;;;;10498327;28;20274;-81
2023/12/20 22:24:31;;;;;;;6.80;2.27;;;6.80;99.90;;;;;;10498057;28;20212;-80
2023/12/20 22:29:34;;;;;;;2.47;1.80;;;6.80;99.90;;;;;;10480960;28;20216;-80
2023/12/20 22:34:37;;;;;;;1.83;1.57;;;6.90;99.90;;;;;;10497264;28;20196;-80
2023/12/20 22:39:40;;;;;;;2.20;2.07;;;6.90;99.90;;;;;;10496194;28;20216;-80
2023/12/20 22:44:42;;;;;;;3.63;2.57;;;6.90;99.90;;;;;;10496713;28;20228;-80
2023/12/20 22:49:46;;;;;;;2.40;1.80;;;6.90;99.90;;;;;;10494777;28;20220;-80
2023/12/20 22:54:50;;;;;;;2.30;2.10;;;6.90;99.90;;;;;;10476529;28;20472;-79
2023/12/20 22:59:52;;;;;;;2.50;2.30;;;7.00;99.90;;;;;;10493600;28;20224;-80
2023/12/20 23:04:56;;;;;;;3.70;2.40;;;7.00;99.90;;;;;;10492783;28;20776;-80
2023/12/20 23:09:58;;;;;;;3.10;2.80;;;7.00;99.90;;;;;;10491815;28;20282;-80
2023/12/20 23:15:01;;;;;;;3.33;2.17;;;7.00;99.90;;;;;;10491923;28;20189;-80
2023/12/20 23:20:05;;;;;;;2.50;2.13;;;7.00;99.90;;;;;;10491149;28;20716;-81
2023/12/20 23:25:08;;;;;;;4.10;2.20;;;7.00;99.90;;;;;;10488105;28;20212;-80
2023/12/20 23:30:11;;;;;;;2.33;1.90;;;7.00;99.90;;;;;;10470750;28;20208;-80
2023/12/20 23:35:15;;;;;;;2.33;2.13;;;7.00;99.90;;;;;;10487183;28;20262;-80
2023/12/20 23:40:17;;;;;;;2.10;2.00;;;7.10;99.90;;;;;;10486831;28;20223;-81
2023/12/20 23:45:20;;;;;;;4.43;2.23;;;7.10;99.90;;;;;;10466496;28;20242;-80
2023/12/20 23:50:23;;;;;;;3.53;2.17;;;7.10;99.90;;;;;;10483635;28;20265;-81
2023/12/20 23:55:26;;;;;;;2.40;2.00;;;7.10;99.90;;;;;;10481722;28;20201;-80
